Time;durP1;ratioP1;P1;durP2;ratioP2;P2;SDS_P1;SDS_P2;PMS_P1;PMS_P2;Temp;Humidity;BMP_temperature;BMP_pressure;BME280_temperature;BME280_humidity;BME280_pressure;Samples;Min_cycle;Max_cycle;Signal;HPM_P1;HPM_P2
2022/01/23 00:00:42;;;;;;;25.57;14.33;;;;;;;4.28;100.00;102391.22;7404167;19;20400;-46
2022/01/23 00:03:17;;;;;;;26.30;14.57;;;;;;;4.25;100.00;102393.50;7400287;19;20444;-49
2022/01/23 00:05:47;;;;;;;30.27;15.00;;;;;;;4.25;100.00;102403.72;7402335;19;20423;-51
2022/01/23 00:08:20;;;;;;;26.43;13.70;;;;;;;4.38;100.00;102403.19;7401905;19;20831;-49
2022/01/23 00:10:52;;;;;;;27.63;15.10;;;;;;;4.33;100.00;102410.44;7400109;19;20392;-47
2022/01/23 00:13:29;;;;;;;25.50;12.70;;;;;;;4.29;100.00;102403.22;7397177;19;20431;-46
2022/01/23 00:18:41;;;;;;;23.07;12.40;;;;;;;4.20;100.00;102400.69;7398085;19;20416;-46
2022/01/23 00:21:10;;;;;;;29.23;11.90;;;;;;;4.22;100.00;102400.84;7400003;19;20463;-47
2022/01/23 00:31:48;;;;;;;26.43;13.17;;;;;;;4.28;100.00;102410.00;7395036;19;20378;-48
2022/01/23 00:34:19;;;;;;;17.73;10.27;;;;;;;4.35;100.00;102405.47;7400271;19;20404;-51
2022/01/23 00:36:49;;;;;;;20.47;10.77;;;;;;;4.27;100.00;102402.19;7392840;19;20419;-46
2022/01/23 00:39:18;;;;;;;24.73;10.87;;;;;;;4.31;100.00;102404.28;7399111;19;20392;-49
2022/01/23 00:41:48;;;;;;;19.97;10.50;;;;;;;4.29;100.00;102404.13;7397156;19;20908;-51
2022/01/23 00:44:20;;;;;;;27.73;12.17;;;;;;;4.32;100.00;102406.97;7397504;19;20397;-51
2022/01/23 00:46:51;;;;;;;22.93;10.00;;;;;;;4.27;100.00;102412.41;7393939;19;20436;-48
2022/01/23 00:49:29;;;;;;;15.73;9.30;;;;;;;4.23;100.00;102410.31;7399554;19;20389;-48
2022/01/23 00:51:59;;;;;;;24.30;10.00;;;;;;;4.28;100.00;102415.13;7398027;19;20443;-48
2022/01/23 00:54:28;;;;;;;18.97;10.30;;;;;;;4.30;100.00;102411.03;7403488;19;20392;-52
2022/01/23 00:56:58;;;;;;;28.30;11.17;;;;;;;4.28;100.00;102419.31;7396741;19;20682;-54
2022/01/23 00:59:30;;;;;;;19.93;10.97;;;;;;;4.30;100.00;102418.72;7399749;19;20461;-49
2022/01/23 01:01:59;;;;;;;22.80;9.90;;;;;;;4.32;100.00;102418.88;7397898;19;20388;-52
2022/01/23 01:04:29;;;;;;;26.47;11.03;;;;;;;4.35;100.00;102421.69;7401328;19;20477;-46
2022/01/23 01:06:59;;;;;;;20.33;11.00;;;;;;;4.33;100.00;102423.22;7396061;19;20437;-49
2022/01/23 01:09:30;;;;;;;25.97;11.00;;;;;;;4.39;100.00;102417.75;7400786;19;20739;-48
2022/01/23 01:12:04;;;;;;;22.43;11.27;;;;;;;4.38;100.00;102427.09;7400128;19;20465;-52
2022/01/23 01:15:00;;;;;;;25.10;11.50;;;;;;;4.43;100.00;102431.00;7401321;19;20457;-49
2022/01/23 01:17:41;;;;;;;19.43;10.87;;;;;;;4.38;100.00;102432.22;7399332;19;20464;-47
2022/01/23 01:31:08;;;;;;;18.30;8.73;;;;;;;4.40;100.00;102435.81;7400961;19;20712;-50
2022/01/23 01:33:49;;;;;;;26.37;11.03;;;;;;;4.42;100.00;102446.19;7398574;19;20427;-50
2022/01/23 01:36:24;;;;;;;19.40;10.70;;;;;;;4.48;100.00;102448.41;7399226;19;21298;-48
2022/01/23 01:38:54;;;;;;;20.43;10.33;;;;;;;4.49;100.00;102438.31;7398691;19;20425;-48
2022/01/23 01:41:24;;;;;;;21.77;12.17;;;;;;;4.51;100.00;102435.94;7399302;19;20451;-47
2022/01/23 01:43:56;;;;;;;19.90;10.17;;;;;;;4.50;100.00;102436.69;7398441;19;20441;-46
2022/01/23 01:46:28;;;;;;;20.97;12.40;;;;;;;4.63;100.00;102442.19;7398964;19;20418;-50
2022/01/23 01:48:58;;;;;;;16.47;10.43;;;;;;;4.58;100.00;102435.72;7398538;19;20435;-50
2022/01/23 01:51:31;;;;;;;19.87;9.77;;;;;;;4.55;100.00;102441.47;7400942;19;20392;-46
2022/01/23 01:54:06;;;;;;;23.70;11.33;;;;;;;4.52;100.00;102441.16;7398447;19;20428;-50
2022/01/23 01:56:46;;;;;;;19.63;11.03;;;;;;;4.57;100.00;102439.06;7398456;19;20429;-49
2022/01/23 01:59:34;;;;;;;18.73;10.40;;;;;;;4.61;100.00;102435.13;7403216;19;20508;-46
2022/01/23 02:10:12;;;;;;;17.70;9.90;;;;;;;4.47;100.00;102427.06;7400425;19;20898;-48
2022/01/23 02:51:15;;;;;;;27.33;11.37;;;;;;;4.87;100.00;102417.03;7398963;19;20386;-47
2022/01/23 02:54:08;;;;;;;20.80;10.80;;;;;;;4.77;100.00;102414.44;7410702;19;20427;-50
2022/01/23 02:56:44;;;;;;;20.40;10.40;;;;;;;4.68;100.00;102417.91;7402635;19;20477;-55
2022/01/23 02:59:21;;;;;;;23.40;10.47;;;;;;;4.67;100.00;102417.78;7412934;19;20400;-51
2022/01/23 03:02:04;;;;;;;19.50;9.57;;;;;;;4.70;100.00;102421.53;7402925;19;20385;-51
2022/01/23 03:04:37;;;;;;;20.70;10.80;;;;;;;4.76;100.00;102423.75;7414653;19;20410;-49
2022/01/23 03:07:32;;;;;;;19.03;9.13;;;;;;;4.70;100.00;102433.41;7401539;19;20486;-50
2022/01/23 03:10:08;;;;;;;17.63;8.73;;;;;;;4.67;100.00;102430.56;7412952;19;20394;-48
2022/01/23 03:15:45;;;;;;;19.43;9.43;;;;;;;4.62;100.00;102430.16;7411506;19;20422;-48
2022/01/23 03:26:30;;;;;;;24.43;9.63;;;;;;;4.72;100.00;102435.34;7410111;19;20403;-46
2022/01/23 03:29:21;;;;;;;24.57;10.87;;;;;;;4.75;100.00;102434.72;7386842;19;20425;-49
2022/01/23 03:32:18;;;;;;;27.23;10.80;;;;;;;4.76;100.00;102435.66;7387855;19;20380;-49
2022/01/23 03:34:48;;;;;;;21.77;10.20;;;;;;;4.72;100.00;102435.34;7410693;19;20398;-45
2022/01/23 03:37:17;;;;;;;22.63;10.47;;;;;;;4.77;100.00;102433.19;7372905;19;20405;-48
2022/01/23 03:39:47;;;;;;;20.90;10.00;;;;;;;4.73;100.00;102432.03;7411075;19;20426;-47
2022/01/23 03:42:19;;;;;;;22.73;9.83;;;;;;;4.86;100.00;102431.50;7386473;19;20494;-47
2022/01/23 03:45:06;;;;;;;21.10;9.57;;;;;;;4.79;100.00;102433.34;7409548;19;20388;-45
2022/01/23 03:47:38;;;;;;;24.40;10.77;;;;;;;4.84;100.00;102437.25;7396663;19;20417;-48
2022/01/23 03:50:08;;;;;;;22.17;9.80;;;;;;;4.78;100.00;102434.13;7411833;19;20388;-47
2022/01/23 03:52:38;;;;;;;23.63;10.80;;;;;;;4.78;100.00;102429.91;7383160;19;20450;-46
2022/01/23 03:55:08;;;;;;;27.67;10.10;;;;;;;4.85;100.00;102421.13;7409846;19;20416;-46
2022/01/23 03:57:40;;;;;;;20.10;9.40;;;;;;;4.88;100.00;102421.44;7381477;19;20729;-48
2022/01/23 04:00:15;;;;;;;21.67;10.23;;;;;;;4.88;100.00;102426.53;7410984;19;20384;-50
2022/01/23 04:02:44;;;;;;;19.93;9.07;;;;;;;5.15;100.00;102422.13;7396792;19;20489;-48
2022/01/23 04:05:14;;;;;;;21.83;9.30;;;;;;;5.06;100.00;102426.41;7401092;19;20419;-50
2022/01/23 04:07:44;;;;;;;19.00;9.10;;;;;;;4.99;100.00;102420.72;7386138;19;20473;-46
2022/01/23 04:10:16;;;;;;;21.13;8.97;;;;;;;4.99;100.00;102430.97;7404364;19;20371;-48
2022/01/23 04:12:52;;;;;;;20.77;9.90;;;;;;;4.97;100.00;102434.16;7386736;19;20414;-47
2022/01/23 04:15:30;;;;;;;17.30;8.60;;;;;;;4.90;100.00;102434.34;7402864;19;20482;-49
2022/01/23 04:20:51;;;;;;;17.50;8.40;;;;;;;4.98;100.00;102439.41;7404066;19;20394;-47
2022/01/23 04:31:49;;;;;;;15.10;7.93;;;;;;;5.00;100.00;102437.91;7401451;19;20393;-46
2022/01/23 04:34:25;;;;;;;19.63;9.27;;;;;;;5.14;100.00;102445.94;7403141;19;20409;-46
2022/01/23 05:01:29;;;;;;;21.47;10.50;;;;;;;5.14;100.00;102431.47;7402777;19;20402;-49
2022/01/23 05:06:46;;;;;;;25.27;11.20;;;;;;;5.24;100.00;102438.31;7398019;19;20430;-47
2022/01/23 05:09:17;;;;;;;20.93;10.80;;;;;;;5.18;100.00;102440.31;7402068;19;20402;-46
2022/01/23 05:11:51;;;;;;;17.50;9.30;;;;;;;5.35;100.00;102436.75;7400192;19;20385;-46
2022/01/23 05:14:27;;;;;;;23.30;10.80;;;;;;;5.48;100.00;102451.53;7406842;19;20494;-47
2022/01/23 05:16:59;;;;;;;22.67;10.70;;;;;;;5.42;100.00;102458.66;7398391;19;20436;-48
2022/01/23 05:19:29;;;;;;;19.33;10.67;;;;;;;5.36;100.00;102455.53;7402040;19;20896;-48
2022/01/23 05:22:19;;;;;;;20.70;10.20;;;;;;;5.33;100.00;102465.50;7399945;19;20427;-48
2022/01/23 05:24:53;;;;;;;19.90;10.90;;;;;;;5.33;100.00;102460.41;7400867;19;20388;-48
2022/01/23 05:27:27;;;;;;;18.40;10.20;;;;;;;5.44;100.00;102467.34;7378833;19;20406;-46
2022/01/23 05:29:58;;;;;;;20.03;10.27;;;;;;;5.43;100.00;102465.56;7400688;19;20581;-49
2022/01/23 05:32:36;;;;;;;18.53;9.97;;;;;;;5.33;100.00;102463.84;7400038;19;20477;-49
2022/01/23 05:35:07;;;;;;;22.10;10.30;;;;;;;5.24;100.00;102461.34;7400656;19;20397;-47
2022/01/23 05:37:37;;;;;;;16.93;9.60;;;;;;;5.24;100.00;102469.03;7399190;19;20411;-49
2022/01/23 05:40:09;;;;;;;17.80;9.60;;;;;;;5.35;100.00;102467.47;7401313;19;20396;-46
2022/01/23 05:42:38;;;;;;;18.53;10.10;;;;;;;5.33;100.00;102465.50;7375028;19;20395;-47
2022/01/23 05:45:08;;;;;;;15.70;8.90;;;;;;;5.29;100.00;102466.91;7399617;19;20391;-49
2022/01/23 05:47:40;;;;;;;17.90;9.67;;;;;;;5.33;100.00;102453.59;7365795;19;20763;-48
2022/01/23 05:50:11;;;;;;;18.87;9.10;;;;;;;5.25;100.00;102460.59;7400266;19;20393;-47
2022/01/23 05:52:41;;;;;;;19.07;9.47;;;;;;;5.30;100.00;102461.00;7375806;19;20445;-50
2022/01/23 05:55:12;;;;;;;15.00;8.50;;;;;;;5.39;100.00;102471.19;7399362;19;20400;-48
2022/01/23 05:57:41;;;;;;;17.13;8.57;;;;;;;5.33;100.00;102468.97;7399009;19;20418;-46
2022/01/23 06:00:12;;;;;;;14.87;8.10;;;;;;;5.37;100.00;102471.03;7400675;19;20656;-48
2022/01/23 06:02:44;;;;;;;16.00;7.60;;;;;;;5.36;100.00;102474.38;7397573;19;20481;-47
2022/01/23 06:05:14;;;;;;;13.60;7.80;;;;;;;5.30;100.00;102478.94;7399609;19;20426;-50
2022/01/23 06:07:45;;;;;;;13.73;7.60;;;;;;;5.40;100.00;102480.66;7398042;19;20466;-49
2022/01/23 06:10:21;;;;;;;15.10;7.30;;;;;;;5.42;100.00;102478.25;7400420;19;20391;-49
2022/01/23 06:12:51;;;;;;;12.53;7.20;;;;;;;5.53;100.00;102487.78;7398169;19;20416;-53
2022/01/23 06:15:21;;;;;;;11.70;6.90;;;;;;;5.44;100.00;102481.84;7399265;19;20411;-50
2022/01/23 06:17:53;;;;;;;17.20;7.03;;;;;;;5.54;100.00;102482.81;7386979;19;20408;-50
2022/01/23 06:20:23;;;;;;;14.00;6.40;;;;;;;5.40;100.00;102481.53;7400132;19;20406;-46
2022/01/23 06:22:52;;;;;;;17.17;6.43;;;;;;;5.40;100.00;102496.03;7397315;19;20474;-49
2022/01/23 06:25:31;;;;;;;15.20;6.37;;;;;;;5.48;100.00;102495.06;7398679;19;20457;-46
2022/01/23 06:28:01;;;;;;;12.73;6.33;;;;;;;5.50;100.00;102497.75;7396584;19;20417;-49
2022/01/23 06:30:30;;;;;;;17.23;6.87;;;;;;;5.58;100.00;102490.78;7399879;19;20388;-47
2022/01/23 06:33:03;;;;;;;15.13;7.10;;;;;;;5.61;100.00;102486.81;7374716;19;20427;-45
2022/01/23 06:35:32;;;;;;;17.83;6.77;;;;;;;5.55;100.00;102488.84;7398421;19;20424;-48
2022/01/23 06:38:02;;;;;;;15.97;6.63;;;;;;;5.54;100.00;102485.34;7373029;19;20661;-48
2022/01/23 06:40:31;;;;;;;12.00;6.00;;;;;;;5.47;100.00;102487.22;7399178;19;20388;-50
2022/01/23 06:43:01;;;;;;;13.93;6.23;;;;;;;5.54;100.00;102482.81;7376264;19;20407;-51
2022/01/23 06:45:30;;;;;;;17.97;7.10;;;;;;;5.55;100.00;102486.28;7397707;19;20423;-48
2022/01/23 06:48:03;;;;;;;10.87;6.40;;;;;;;5.52;100.00;102492.00;7367083;19;20423;-48
2022/01/23 06:50:32;;;;;;;14.20;6.90;;;;;;;5.51;100.00;102490.22;7398770;19;20466;-48
2022/01/23 06:53:02;;;;;;;14.37;7.03;;;;;;;5.53;100.00;102486.13;7376640;19;20429;-48
2022/01/23 06:55:31;;;;;;;11.97;6.53;;;;;;;5.46;100.00;102491.47;7397896;19;20877;-48
2022/01/23 06:58:00;;;;;;;17.70;6.47;;;;;;;5.62;100.00;102493.75;7372838;19;20459;-46
2022/01/23 07:00:32;;;;;;;16.80;7.43;;;;;;;5.72;100.00;102500.59;7398520;19;20398;-48
2022/01/23 07:03:05;;;;;;;16.17;7.60;;;;;;;5.57;100.00;102501.75;7371260;19;20411;-48
2022/01/23 07:05:35;;;;;;;17.37;9.60;;;;;;;5.68;100.00;102504.53;7397010;19;20431;-49
2022/01/23 07:08:04;;;;;;;20.40;10.10;;;;;;;5.53;100.00;102514.28;7371355;19;20418;-46
2022/01/23 07:10:34;;;;;;;17.73;8.33;;;;;;;5.44;100.00;102505.75;7398228;19;20451;-46
2022/01/23 07:13:04;;;;;;;14.13;8.17;;;;;;;5.42;100.00;102516.66;7374560;19;20399;-48
2022/01/23 07:15:33;;;;;;;16.83;8.60;;;;;;;5.37;100.00;102519.69;7401282;19;20423;-49
2022/01/23 07:18:06;;;;;;;19.97;9.00;;;;;;;5.36;100.00;102525.56;7360610;19;20433;-49
2022/01/23 07:20:35;;;;;;;16.50;8.30;;;;;;;5.35;100.00;102545.91;7401102;19;20893;-50
2022/01/23 07:23:05;;;;;;;14.43;8.00;;;;;;;5.37;100.00;102546.94;7371712;19;20441;-48
2022/01/23 07:25:34;;;;;;;20.00;9.23;;;;;;;5.37;100.00;102546.94;7396075;19;20478;-49
2022/01/23 07:28:06;;;;;;;24.00;9.37;;;;;;;5.36;100.00;102548.59;7376728;19;20414;-46
2022/01/23 07:30:39;;;;;;;18.47;9.93;;;;;;;5.39;100.00;102551.44;7398142;19;20451;-49
2022/01/23 07:33:12;;;;;;;16.90;8.20;;;;;;;5.39;100.00;102556.56;7396281;19;20420;-50
2022/01/23 07:35:41;;;;;;;14.90;8.03;;;;;;;5.34;100.00;102562.91;7396554;19;20428;-49
2022/01/23 07:38:11;;;;;;;15.73;8.37;;;;;;;5.49;100.00;102576.22;7394775;19;20475;-48
2022/01/23 07:40:40;;;;;;;17.30;8.40;;;;;;;5.39;100.00;102577.03;7404521;19;20394;-48
2022/01/23 07:43:10;;;;;;;17.97;8.23;;;;;;;5.40;100.00;102580.50;7403412;19;20426;-50
2022/01/23 07:45:39;;;;;;;20.17;9.03;;;;;;;5.40;100.00;102577.94;7403568;19;20415;-47
2022/01/23 07:48:12;;;;;;;20.53;9.20;;;;;;;5.48;100.00;102584.66;7401530;19;20499;-49
2022/01/23 07:50:41;;;;;;;15.30;8.90;;;;;;;5.41;100.00;102579.75;7405109;19;20994;-48
2022/01/23 07:53:11;;;;;;;16.40;7.40;;;;;;;5.45;100.00;102584.41;7368901;19;20478;-48
2022/01/23 07:55:41;;;;;;;15.03;8.60;;;;;;;5.42;100.00;102586.66;7402738;19;20420;-47
2022/01/23 07:58:13;;;;;;;18.83;8.50;;;;;;;5.45;100.00;102596.28;7381600;19;20426;-53
2022/01/23 08:00:49;;;;;;;17.97;8.60;;;;;;;5.47;100.00;102590.53;7404420;19;20396;-47
2022/01/23 08:03:21;;;;;;;15.40;8.50;;;;;;;5.43;100.00;102591.00;7402860;19;20407;-47
2022/01/23 08:05:51;;;;;;;18.73;8.40;;;;;;;5.48;100.00;102594.91;7402711;19;20889;-49
2022/01/23 08:08:20;;;;;;;17.50;7.93;;;;;;;5.49;100.00;102598.38;7401544;19;20478;-48
2022/01/23 08:10:50;;;;;;;16.07;7.57;;;;;;;5.50;100.00;102598.50;7404275;19;20714;-47
2022/01/23 08:13:20;;;;;;;16.53;7.60;;;;;;;5.53;100.00;102600.44;7401055;19;20478;-50
2022/01/23 08:15:49;;;;;;;19.17;7.60;;;;;;;5.58;100.00;102601.78;7403019;19;20990;-51
2022/01/23 08:18:21;;;;;;;20.40;7.40;;;;;;;5.58;100.00;102606.88;7402091;19;20434;-48
2022/01/23 08:20:51;;;;;;;20.93;7.03;;;;;;;5.58;100.00;102611.13;7404112;19;20390;-47
2022/01/23 08:23:23;;;;;;;17.70;7.27;;;;;;;5.54;100.00;102609.94;7402096;19;20425;-47
2022/01/23 08:25:53;;;;;;;24.17;7.73;;;;;;;5.54;100.00;102613.41;7401957;19;20475;-48
2022/01/23 08:28:22;;;;;;;18.53;7.50;;;;;;;5.63;100.00;102615.00;7395968;19;20441;-48
2022/01/23 08:30:52;;;;;;;17.53;6.90;;;;;;;5.63;100.00;102615.00;7403661;19;20387;-52
2022/01/23 08:33:24;;;;;;;21.30;7.70;;;;;;;5.66;100.00;102608.47;7402353;19;20419;-47
2022/01/23 08:35:56;;;;;;;14.50;7.27;;;;;;;5.66;100.00;102621.28;7402271;19;20475;-48
2022/01/23 08:38:26;;;;;;;17.67;7.60;;;;;;;5.71;100.00;102619.19;7376344;19;20406;-47
2022/01/23 08:43:43;;;;;;;25.23;8.33;;;;;;;5.83;100.00;102615.94;7376225;19;20391;-48
2022/01/23 08:46:14;;;;;;;21.50;9.37;;;;;;;5.87;100.00;102618.00;7401093;19;20417;-47
2022/01/23 08:48:46;;;;;;;18.43;9.40;;;;;;;6.00;100.00;102620.03;7400542;19;20402;-48
2022/01/23 08:51:16;;;;;;;20.73;9.57;;;;;;;5.85;100.00;102624.66;7403683;19;20921;-46
2022/01/23 08:53:46;;;;;;;25.23;8.40;;;;;;;5.90;100.00;102625.97;7400352;19;20438;-46
2022/01/23 08:56:16;;;;;;;21.03;8.93;;;;;;;5.91;100.00;102625.22;7400731;19;20416;-49
2022/01/23 08:58:45;;;;;;;20.00;8.90;;;;;;;6.01;100.00;102625.25;7399619;19;20429;-50
2022/01/23 09:01:16;;;;;;;21.17;8.70;;;;;;;5.89;100.00;102621.63;7402680;19;20420;-50
2022/01/23 09:03:48;;;;;;;46.93;9.30;;;;;;;6.01;100.00;102627.81;7393725;19;20412;-49
2022/01/23 09:06:19;;;;;;;16.77;7.83;;;;;;;6.00;100.00;102641.41;7400274;19;20479;-47
2022/01/23 09:08:48;;;;;;;24.73;8.70;;;;;;;6.16;100.00;102628.34;7398444;19;20502;-47
2022/01/23 09:11:28;;;;;;;21.20;8.30;;;;;;;5.99;100.00;102638.72;7402587;19;20388;-46
2022/01/23 09:14:06;;;;;;;15.23;7.43;;;;;;;5.89;100.00;102637.00;7398950;19;20439;-47
2022/01/23 09:16:37;;;;;;;22.17;7.40;;;;;;;6.01;100.00;102638.06;7403612;19;20419;-50
2022/01/23 09:19:10;;;;;;;17.30;7.53;;;;;;;5.98;100.00;102650.63;7401426;19;20872;-52
2022/01/23 09:21:46;;;;;;;15.27;7.03;;;;;;;5.93;100.00;102649.28;7390781;19;20382;-50
2022/01/23 09:24:16;;;;;;;19.17;7.77;;;;;;;5.93;100.00;102655.34;7401108;19;20395;-50
2022/01/23 09:26:52;;;;;;;20.87;7.90;;;;;;;5.93;100.00;102650.22;7365440;19;20968;-47
2022/01/23 09:29:30;;;;;;;26.17;7.43;;;;;;;6.02;100.00;102651.78;7398032;19;20396;-48
2022/01/23 09:32:00;;;;;;;21.87;7.70;;;;;;;6.20;100.00;102656.06;7378005;19;20436;-50
2022/01/23 09:34:33;;;;;;;23.97;7.33;;;;;;;6.08;100.00;102654.94;7399372;19;20937;-53
2022/01/23 09:37:06;;;;;;;17.90;7.27;;;;;;;6.00;100.00;102643.97;7397454;19;20435;-47
2022/01/23 09:39:36;;;;;;;17.67;6.37;;;;;;;6.13;100.00;102652.78;7401442;19;20396;-48
2022/01/23 09:42:10;;;;;;;23.47;7.13;;;;;;;6.11;100.00;102656.91;7390039;19;20403;-49
2022/01/23 09:44:42;;;;;;;18.20;6.70;;;;;;;6.15;100.00;102651.28;7400300;19;20680;-47
2022/01/23 09:47:14;;;;;;;15.10;6.70;;;;;;;6.21;100.00;102656.97;7397218;19;20705;-46
2022/01/23 09:49:46;;;;;;;15.17;6.77;;;;;;;6.30;100.00;102662.91;7400646;19;20901;-48
2022/01/23 09:52:17;;;;;;;12.37;6.47;;;;;;;6.31;100.00;102654.44;7401746;19;20470;-47
2022/01/23 09:54:56;;;;;;;12.90;5.20;;;;;;;6.40;100.00;102659.50;7398805;19;20387;-48
2022/01/23 09:57:29;;;;;;;12.93;6.47;;;;;;;6.29;100.00;102663.69;7398424;19;20491;-51
2022/01/23 10:00:00;;;;;;;16.40;6.27;;;;;;;6.37;100.00;102660.91;7401327;19;20451;-49
2022/01/23 10:02:30;;;;;;;10.93;5.07;;;;;;;6.24;100.00;102672.63;7394545;19;20515;-49
2022/01/23 10:05:07;;;;;;;15.57;5.33;;;;;;;6.21;100.00;102678.38;7402093;19;20403;-53
2022/01/23 10:07:41;;;;;;;14.67;6.33;;;;;;;6.29;100.00;102676.50;7377015;19;20405;-46
2022/01/23 10:10:16;;;;;;;29.77;5.53;;;;;;;6.16;100.00;102688.97;7399937;19;20852;-48
2022/01/23 10:12:50;;;;;;;16.10;6.80;;;;;;;6.18;100.00;102687.44;7377944;19;20434;-50
2022/01/23 10:15:20;;;;;;;17.07;5.70;;;;;;;6.07;100.00;102684.78;7398701;19;20415;-49
2022/01/23 10:17:50;;;;;;;21.77;6.97;;;;;;;6.26;100.00;102676.19;7376904;19;20470;-49
2022/01/23 10:20:22;;;;;;;20.00;6.93;;;;;;;6.18;100.00;102685.78;7399113;19;20396;-48
2022/01/23 10:22:54;;;;;;;23.50;7.00;;;;;;;6.14;100.00;102686.25;7397077;19;20423;-50
2022/01/23 10:25:26;;;;;;;20.90;8.03;;;;;;;6.18;100.00;102685.78;7398738;19;20895;-47
2022/01/23 10:28:02;;;;;;;17.03;7.43;;;;;;;6.12;100.00;102686.88;7396920;19;20776;-50
2022/01/23 10:30:35;;;;;;;25.07;7.83;;;;;;;6.14;100.00;102693.03;7401696;19;20459;-47
2022/01/23 10:33:10;;;;;;;22.43;7.63;;;;;;;6.04;100.00;102689.66;7397852;19;20487;-47
2022/01/23 10:36:00;;;;;;;26.70;7.20;;;;;;;6.20;100.00;102696.16;7398297;19;20423;-48
2022/01/23 10:38:32;;;;;;;25.10;8.00;;;;;;;6.34;100.00;102698.34;7397405;19;20423;-47
2022/01/23 10:41:29;;;;;;;21.73;9.90;;;;;;;6.35;100.00;102697.56;7399463;19;20746;-47
2022/01/23 10:47:30;;;;;;;25.17;8.47;;;;;;;6.19;100.00;102696.94;7395499;19;20475;-52
2022/01/23 10:50:01;;;;;;;41.80;13.33;;;;;;;6.16;100.00;102688.97;7397814;19;20468;-47
2022/01/23 10:52:35;;;;;;;31.30;11.20;;;;;;;6.15;100.00;102694.88;7395857;19;20427;-50
2022/01/23 10:55:07;;;;;;;29.53;11.80;;;;;;;6.26;100.00;102698.41;7398027;19;20454;-51
2022/01/23 10:57:39;;;;;;;23.83;12.70;;;;;;;6.21;100.00;102695.44;7370687;19;20503;-50
2022/01/23 11:00:10;;;;;;;37.40;13.10;;;;;;;6.24;100.00;102693.13;7401802;19;20392;-49
2022/01/23 11:02:41;;;;;;;20.63;10.47;;;;;;;6.27;100.00;102693.41;7373021;19;20401;-47
2022/01/23 11:05:15;;;;;;;23.50;9.87;;;;;;;6.26;100.00;102690.72;7401058;19;20398;-52
2022/01/23 11:07:49;;;;;;;65.67;19.63;;;;;;;6.39;100.00;102692.69;7372660;19;20438;-53
2022/01/23 11:10:21;;;;;;;30.10;9.90;;;;;;;6.42;100.00;102678.47;7398650;19;20980;-50
2022/01/23 11:18:39;;;;;;;12.00;6.40;;;;;;;6.42;100.00;102680.16;7403854;19;20410;-47
2022/01/23 11:21:17;;;;;;;22.23;7.83;;;;;;;6.45;100.00;102665.94;7382464;19;20859;-48
2022/01/23 11:24:07;;;;;;;21.97;7.97;;;;;;;6.55;100.00;102654.84;7404486;19;20395;-47
2022/01/23 11:26:37;;;;;;;11.80;6.90;;;;;;;6.64;100.00;102659.88;7368777;19;20862;-48
2022/01/23 11:29:12;;;;;;;13.00;6.77;;;;;;;6.62;100.00;102666.56;7402998;19;20398;-50
2022/01/23 11:31:43;;;;;;;36.87;10.87;;;;;;;6.71;100.00;102659.66;7378720;19;20434;-48
2022/01/23 11:34:14;;;;;;;17.93;6.77;;;;;;;6.70;100.00;102664.66;7404276;19;20391;-48
2022/01/23 11:36:44;;;;;;;34.13;10.73;;;;;;;6.72;100.00;102658.00;7377964;19;20431;-50
2022/01/23 11:39:27;;;;;;;26.40;10.00;;;;;;;6.66;100.00;102655.78;7404450;19;20390;-50
2022/01/23 11:56:44;;;;;;;8.30;3.60;;;;;;;6.71;100.00;102657.09;7398359;19;21344;-50
2022/01/23 11:59:23;;;;;;;52.77;12.50;;;;;;;6.66;100.00;102662.59;7404128;19;20391;-53
2022/01/23 12:02:27;;;;;;;43.30;10.43;;;;;;;6.66;100.00;102675.44;7368125;19;20876;-49
2022/01/23 12:05:23;;;;;;;68.30;13.87;;;;;;;6.78;100.00;102667.91;7398562;19;20911;-50
2022/01/23 12:08:27;;;;;;;14.87;3.60;;;;;;;6.70;100.00;102668.13;7376228;19;20463;-46
2022/01/23 12:17:27;;;;;;;7.50;2.40;;;;;;;6.74;100.00;102667.66;7403861;19;20756;-48
2022/01/23 12:19:58;;;;;;;9.10;2.63;;;;;;;6.73;100.00;102660.69;7395330;19;20681;-53
2022/01/23 12:22:42;;;;;;;9.77;2.63;;;;;;;6.71;100.00;102667.34;7403951;19;20379;-54
2022/01/23 12:25:17;;;;;;;5.83;2.20;;;;;;;6.66;100.00;102667.72;7400228;19;20426;-52
2022/01/23 12:27:48;;;;;;;10.40;2.27;;;;;;;6.66;100.00;102673.75;7377254;19;20392;-54
2022/01/23 12:30:35;;;;;;;5.60;2.03;;;;;;;6.65;100.00;102673.63;7400061;19;20380;-52
2022/01/23 12:33:30;;;;;;;6.50;2.20;;;;;;;6.62;100.00;102666.56;7377934;19;20415;-49
2022/01/23 12:36:07;;;;;;;11.87;2.47;;;;;;;6.67;100.00;102679.78;7400548;19;20896;-49
2022/01/23 12:38:40;;;;;;;7.30;1.67;;;;;;;6.64;100.00;102674.38;7380886;19;20427;-51
2022/01/23 12:41:20;;;;;;;5.93;1.63;;;;;;;6.60;100.00;102684.38;7402409;19;20399;-52
2022/01/23 12:43:51;;;;;;;5.23;2.33;;;;;;;6.72;100.00;102673.41;7374077;19;20470;-49
2022/01/23 12:46:35;;;;;;;7.03;1.80;;;;;;;6.68;100.00;102679.00;7400655;19;20476;-51
2022/01/23 12:49:21;;;;;;;10.07;2.20;;;;;;;6.60;100.00;102686.94;7392602;19;20948;-52
2022/01/23 12:51:52;;;;;;;6.83;1.30;;;;;;;6.60;100.00;102679.25;7401600;19;20427;-49
2022/01/23 12:54:30;;;;;;;7.43;1.40;;;;;;;6.57;100.00;102673.81;7391463;19;20454;-51
2022/01/23 12:57:09;;;;;;;6.00;1.40;;;;;;;6.57;100.00;102673.81;7400798;19;20434;-50
2022/01/23 12:59:39;;;;;;;7.80;1.80;;;;;;;6.61;100.00;102680.13;7383895;19;20483;-51
2022/01/23 13:02:18;;;;;;;6.47;1.50;;;;;;;6.74;100.00;102672.78;7403951;19;20660;-51
2022/01/23 13:04:50;;;;;;;2.50;1.40;;;;;;;6.82;100.00;102670.84;7398235;19;20724;-53
2022/01/23 13:07:30;;;;;;;5.83;1.43;;;;;;;6.80;100.00;102672.41;7402158;19;20403;-50
2022/01/23 13:10:09;;;;;;;2.90;1.20;;;;;;;6.66;100.00;102688.25;7400610;19;20426;-54
2022/01/23 13:15:56;;;;;;;3.20;1.47;;;;;;;6.77;100.00;102682.38;7399020;19;20399;-52
2022/01/23 13:32:19;;;;;;;9.00;1.33;;;;;;;8.64;100.00;102723.69;7401372;19;20408;-49
2022/01/23 13:34:53;;;;;;;6.13;1.57;;;;;;;8.57;100.00;102726.56;7402068;19;20798;-47
2022/01/23 13:37:25;;;;;;;4.10;1.00;;;;;;;8.23;100.00;102733.25;7398744;19;20393;-47
2022/01/23 13:40:00;;;;;;;7.20;2.10;;;;;;;8.38;100.00;102730.16;7397344;19;20436;-47
2022/01/23 13:42:48;;;;;;;5.57;1.57;;;;;;;8.32;100.00;102734.78;7401085;19;20449;-52
2022/01/23 13:53:51;;;;;;;5.00;1.43;;;;;;;8.64;100.00;102745.19;7355024;19;20701;-48
2022/01/23 13:59:09;;;;;;;5.20;1.27;;;;;;;8.53;100.00;102755.38;7365054;19;20389;-51
2022/01/23 14:01:51;;;;;;;4.10;1.00;;;;;;;8.36;100.00;102747.13;7403784;19;20464;-50
2022/01/23 14:04:24;;;;;;;5.77;1.47;;;;;;;8.11;100.00;102747.66;7376968;19;20742;-53
2022/01/23 14:06:56;;;;;;;2.50;0.90;;;;;;;7.83;100.00;102746.25;7398405;19;20452;-51
2022/01/23 14:09:29;;;;;;;4.30;1.30;;;;;;;7.71;100.00;102750.34;7396710;19;20421;-47
2022/01/23 14:11:58;;;;;;;5.50;1.10;;;;;;;7.77;100.00;102752.50;7399828;19;20717;-49
2022/01/23 14:14:29;;;;;;;4.93;1.57;;;;;;;7.63;100.00;102748.78;7368715;19;20484;-49
2022/01/23 14:17:13;;;;;;;5.63;1.37;;;;;;;7.42;100.00;102749.63;7398410;19;20415;-48
2022/01/23 14:19:43;;;;;;;6.63;1.27;;;;;;;7.49;100.00;102747.59;7373679;19;20431;-49
2022/01/23 14:22:15;;;;;;;6.10;1.20;;;;;;;7.29;100.00;102746.78;7399761;19;20460;-53
2022/01/23 14:24:45;;;;;;;4.90;1.20;;;;;;;7.27;100.00;102750.84;7393017;19;20420;-52
2022/01/23 14:27:17;;;;;;;2.43;1.30;;;;;;;7.13;100.00;102760.81;7397772;19;20433;-51
2022/01/23 14:29:51;;;;;;;3.63;1.23;;;;;;;7.04;100.00;102754.88;7372245;19;20425;-50
2022/01/23 14:32:29;;;;;;;8.10;1.20;;;;;;;6.88;100.00;102750.06;7399732;19;20471;-54
2022/01/23 14:35:06;;;;;;;3.47;1.00;;;;;;;6.84;100.00;102756.59;7393407;19;20415;-51
2022/01/23 14:37:43;;;;;;;7.43;1.37;;;;;;;6.75;100.00;102758.31;7369522;19;20639;-49
2022/01/23 14:40:17;;;;;;;7.93;1.40;;;;;;;6.70;100.00;102757.00;7399154;19;20446;-51
2022/01/23 14:43:00;;;;;;;3.63;1.37;;;;;;;6.64;100.00;102753.88;7375575;19;20460;-52
2022/01/23 14:45:32;;;;;;;3.47;1.10;;;;;;;6.70;100.00;102767.25;7397954;19;20404;-54